createdAt,value
2022-08-26T00:00:21.397Z,11.43
2022-08-26T00:02:49.747Z,9.93
2022-08-26T00:05:18.261Z,12.57
2022-08-26T00:07:47.339Z,9.93
2022-08-26T00:10:16.088Z,9.80
2022-08-26T00:12:46.020Z,10.50
2022-08-26T00:15:17.539Z,9.63
2022-08-26T00:17:48.104Z,10.77
2022-08-26T00:20:20.579Z,9.97
2022-08-26T00:22:49.330Z,15.10
2022-08-26T00:25:18.191Z,9.57
2022-08-26T00:27:47.782Z,9.43
2022-08-26T00:30:24.914Z,9.67
2022-08-26T00:32:57.450Z,9.63
2022-08-26T00:35:28.094Z,10.50
2022-08-26T00:37:57.120Z,9.40
2022-08-26T00:40:32.815Z,14.73
2022-08-26T00:43:02.327Z,9.80
2022-08-26T00:45:44.406Z,10.53
2022-08-26T00:48:18.127Z,11.00
2022-08-26T00:50:52.714Z,12.63
2022-08-26T00:53:26.021Z,11.53
2022-08-26T00:56:02.783Z,12.07
2022-08-26T00:58:33.987Z,12.53
2022-08-26T01:01:03.301Z,12.00
2022-08-26T01:03:36.220Z,11.23
2022-08-26T01:06:05.334Z,12.83
2022-08-26T01:08:41.415Z,9.93
2022-08-26T01:11:10.177Z,10.30
2022-08-26T01:13:39.479Z,10.57
2022-08-26T01:16:12.502Z,12.17
2022-08-26T01:18:45.002Z,9.70
2022-08-26T01:21:21.017Z,9.27
2022-08-26T01:23:57.479Z,9.60
2022-08-26T01:26:29.741Z,10.97
2022-08-26T01:29:01.432Z,10.63
2022-08-26T01:31:36.742Z,11.20
2022-08-26T01:34:12.188Z,11.23
2022-08-26T01:36:41.500Z,10.13
2022-08-26T01:39:12.700Z,10.27
2022-08-26T01:41:44.073Z,12.93
2022-08-26T01:44:21.145Z,10.70
2022-08-26T01:46:51.805Z,10.37
2022-08-26T01:49:21.387Z,10.13
2022-08-26T01:51:54.231Z,13.77
2022-08-26T01:54:24.787Z,13.13
2022-08-26T01:56:53.773Z,10.60
2022-08-26T01:59:24.489Z,10.47
2022-08-26T02:01:53.207Z,10.60
2022-08-26T02:04:27.618Z,13.63
2022-08-26T02:06:57.916Z,10.40
2022-08-26T02:09:29.216Z,14.13
2022-08-26T02:12:01.447Z,10.37
2022-08-26T02:17:07.282Z,13.93
2022-08-26T02:19:41.052Z,13.27
2022-08-26T02:22:16.186Z,10.03
2022-08-26T02:24:52.701Z,11.23
2022-08-26T02:27:24.862Z,11.43
2022-08-26T02:29:58.982Z,10.77
2022-08-26T02:32:27.403Z,13.40
2022-08-26T02:34:55.850Z,12.90
2022-08-26T02:37:24.253Z,10.60
2022-08-26T02:39:55.174Z,11.37
2022-08-26T02:42:23.604Z,10.77
2022-08-26T02:44:53.306Z,11.10
2022-08-26T02:47:21.674Z,10.87
2022-08-26T02:49:53.714Z,13.73
2022-08-26T02:52:22.103Z,11.40
2022-08-26T02:54:50.467Z,11.23
2022-08-26T02:57:20.630Z,13.37
2022-08-26T02:59:50.744Z,11.10
2022-08-26T03:02:19.161Z,10.30
2022-08-26T03:04:58.062Z,11.63
2022-08-26T03:07:30.862Z,13.13
2022-08-26T03:09:59.458Z,19.00
2022-08-26T03:12:29.213Z,13.63
2022-08-26T03:14:58.337Z,11.17
2022-08-26T03:17:26.921Z,11.40
2022-08-26T03:19:57.204Z,11.07
2022-08-26T03:22:27.121Z,12.10
2022-08-26T03:24:55.726Z,11.53
2022-08-26T03:27:24.044Z,11.43
2022-08-26T03:30:11.735Z,14.43
2022-08-26T03:32:41.367Z,14.33
2022-08-26T03:35:10.637Z,11.60
2022-08-26T03:37:39.806Z,11.73
2022-08-26T03:40:11.617Z,11.97
2022-08-26T03:42:41.389Z,11.17
2022-08-26T03:45:16.747Z,11.83
2022-08-26T03:47:45.783Z,13.13
2022-08-26T03:50:22.644Z,14.03
2022-08-26T03:52:51.782Z,12.13
2022-08-26T03:55:23.599Z,13.40
2022-08-26T03:57:52.177Z,14.17
2022-08-26T04:00:22.735Z,12.63
2022-08-26T04:02:53.264Z,17.33
2022-08-26T04:05:24.145Z,12.20
2022-08-26T04:07:53.033Z,14.73
2022-08-26T04:10:28.574Z,11.40
2022-08-26T04:13:05.940Z,20.07
2022-08-26T04:15:35.692Z,15.07
2022-08-26T04:18:04.650Z,12.60
2022-08-26T04:20:33.045Z,11.93
2022-08-26T04:23:01.465Z,13.27
2022-08-26T04:25:30.138Z,12.97
2022-08-26T04:27:58.495Z,14.03
2022-08-26T04:30:26.888Z,11.70
2022-08-26T04:32:56.609Z,11.93
2022-08-26T04:35:26.330Z,11.50
2022-08-26T04:37:56.166Z,11.57
2022-08-26T04:40:27.589Z,13.73
2022-08-26T04:42:56.866Z,12.67
2022-08-26T04:45:26.310Z,13.80
2022-08-26T04:47:58.254Z,11.60
2022-08-26T04:50:27.022Z,15.07
2022-08-26T04:52:56.405Z,13.63
2022-08-26T04:55:39.720Z,12.40
2022-08-26T04:58:11.181Z,12.73
2022-08-26T05:00:40.339Z,12.47
2022-08-26T05:03:10.775Z,13.67
2022-08-26T05:05:41.304Z,12.43
2022-08-26T05:08:11.235Z,12.23
2022-08-26T05:10:43.665Z,14.27
2022-08-26T05:13:15.111Z,13.00
2022-08-26T05:15:45.281Z,13.47
2022-08-26T05:18:17.460Z,12.80
2022-08-26T05:20:51.527Z,11.83
2022-08-26T05:23:23.569Z,12.30
2022-08-26T05:25:58.995Z,12.90
2022-08-26T05:28:29.633Z,17.77
2022-08-26T05:30:58.362Z,13.23
2022-08-26T05:33:28.905Z,13.93
2022-08-26T05:35:57.214Z,16.17
2022-08-26T05:38:25.579Z,12.77
2022-08-26T05:40:58.717Z,14.10
2022-08-26T05:43:27.889Z,13.63
2022-08-26T05:45:56.403Z,14.87
2022-08-26T05:48:25.130Z,12.33
2022-08-26T05:50:55.145Z,13.43
2022-08-26T05:53:26.088Z,12.37
2022-08-26T05:55:56.201Z,11.97
2022-08-26T05:58:25.316Z,12.90
2022-08-26T06:01:03.545Z,14.50
2022-08-26T06:03:34.758Z,13.43
2022-08-26T06:06:07.524Z,13.63
2022-08-26T06:08:37.767Z,13.07
2022-08-26T06:11:10.751Z,13.27
2022-08-26T06:13:47.909Z,12.50
2022-08-26T06:16:19.463Z,17.27
2022-08-26T06:18:49.200Z,15.43
2022-08-26T06:21:21.405Z,13.50
2022-08-26T06:24:10.885Z,13.43
2022-08-26T06:26:42.961Z,15.23
2022-08-26T06:29:15.467Z,14.37
2022-08-26T06:31:54.032Z,13.97
2022-08-26T06:34:29.636Z,15.03
2022-08-26T06:37:03.550Z,14.00
2022-08-26T06:39:32.704Z,14.53
2022-08-26T06:42:03.056Z,14.20
2022-08-26T06:44:32.377Z,17.57
2022-08-26T06:47:00.873Z,16.23
2022-08-26T06:49:29.439Z,14.53
2022-08-26T06:51:59.751Z,15.60
2022-08-26T06:54:30.248Z,14.40
2022-08-26T06:56:59.024Z,14.93
2022-08-26T06:59:27.759Z,15.10
2022-08-26T07:01:56.541Z,15.60
2022-08-26T07:04:25.060Z,15.53
2022-08-26T07:06:57.025Z,15.13
2022-08-26T07:09:33.134Z,15.73
2022-08-26T07:12:01.833Z,19.33
2022-08-26T07:14:31.746Z,15.87
2022-08-26T07:17:01.374Z,15.50
2022-08-26T07:19:31.392Z,15.80
2022-08-26T07:22:01.974Z,16.47
2022-08-26T07:24:32.534Z,15.93
2022-08-26T07:27:02.735Z,17.33
2022-08-26T07:29:32.367Z,18.97
2022-08-26T07:32:00.808Z,16.50
2022-08-26T07:34:29.358Z,16.43
2022-08-26T07:36:58.727Z,16.97
2022-08-26T07:39:27.943Z,15.77
2022-08-26T07:42:01.372Z,17.83
2022-08-26T07:44:32.292Z,17.60
2022-08-26T07:47:00.865Z,19.53
2022-08-26T07:49:29.682Z,21.57
2022-08-26T07:51:58.177Z,19.17
2022-08-26T07:54:27.318Z,16.83
2022-08-26T07:56:57.620Z,16.87
2022-08-26T07:59:26.415Z,16.87
2022-08-26T08:01:54.794Z,19.33
2022-08-26T08:04:26.544Z,17.03
2022-08-26T08:06:55.499Z,19.37
2022-08-26T08:09:24.599Z,19.60
2022-08-26T08:11:54.051Z,16.40
2022-08-26T08:14:23.788Z,17.63
2022-08-26T08:16:55.057Z,17.40
2022-08-26T08:19:24.400Z,18.97
2022-08-26T08:22:17.085Z,34.80
2022-08-26T08:24:49.886Z,21.27
2022-08-26T08:27:23.881Z,14.73
2022-08-26T08:29:55.230Z,17.17
2022-08-26T08:32:24.439Z,16.03
2022-08-26T08:34:52.947Z,17.60
2022-08-26T08:37:21.359Z,16.97
2022-08-26T08:39:50.176Z,16.13
2022-08-26T08:42:39.736Z,15.43
2022-08-26T08:45:15.410Z,16.50
2022-08-26T08:47:54.778Z,15.20
2022-08-26T08:50:28.925Z,14.43
2022-08-26T08:53:15.128Z,17.37
2022-08-26T08:56:00.101Z,15.57
2022-08-26T08:58:50.471Z,19.00
2022-08-26T09:01:31.586Z,15.57
2022-08-26T09:04:23.212Z,13.67
2022-08-26T09:09:31.924Z,14.77
2022-08-26T09:12:02.225Z,18.73
2022-08-26T09:14:32.710Z,18.50
2022-08-26T09:17:09.875Z,15.10
2022-08-26T09:19:44.597Z,19.53
2022-08-26T09:22:29.442Z,14.90
2022-08-26T09:24:57.820Z,14.77
2022-08-26T09:27:46.327Z,15.80
2022-08-26T09:30:34.426Z,15.23
2022-08-26T09:33:10.874Z,13.20
2022-08-26T09:35:43.861Z,19.27
2022-08-26T09:38:26.677Z,13.77
2022-08-26T09:40:59.765Z,16.07
2022-08-26T09:43:29.116Z,13.43
2022-08-26T09:46:15.167Z,16.30
2022-08-26T09:48:45.041Z,13.03
2022-08-26T09:51:30.723Z,16.87
2022-08-26T09:54:02.224Z,14.97
2022-08-26T09:56:34.291Z,12.10
2022-08-26T09:59:03.981Z,13.53
2022-08-26T10:01:40.195Z,14.07
2022-08-26T10:04:14.026Z,14.07
2022-08-26T10:06:46.240Z,14.40
2022-08-26T10:09:19.510Z,12.52
2022-08-26T10:11:53.536Z,13.88
2022-08-26T10:14:27.553Z,17.33
2022-08-26T10:17:03.552Z,12.48
2022-08-26T10:19:57.078Z,13.20
2022-08-26T10:22:33.472Z,12.68
2022-08-26T10:25:04.961Z,12.00
2022-08-26T10:27:51.206Z,18.58
2022-08-26T10:30:25.092Z,14.40
2022-08-26T10:32:58.829Z,15.77
2022-08-26T10:35:29.488Z,14.18
2022-08-26T10:38:03.954Z,12.95
2022-08-26T10:40:46.178Z,14.52
2022-08-26T10:43:23.534Z,13.88
2022-08-26T10:45:59.937Z,13.52
2022-08-26T10:48:37.368Z,14.38
2022-08-26T10:51:08.687Z,13.45
2022-08-26T10:53:51.412Z,14.02
2022-08-26T10:56:38.125Z,12.98
2022-08-26T10:59:16.036Z,13.07
2022-08-26T11:01:52.624Z,12.90
2022-08-26T11:04:40.868Z,13.35
2022-08-26T11:07:41.908Z,11.95
2022-08-26T11:10:28.145Z,14.10
2022-08-26T11:13:00.190Z,17.05
2022-08-26T11:16:10.804Z,13.55
2022-08-26T11:18:46.994Z,14.70
2022-08-26T11:22:06.065Z,14.15
2022-08-26T11:25:07.610Z,13.63
2022-08-26T11:28:05.229Z,10.45
2022-08-26T11:30:57.011Z,10.30
2022-08-26T11:34:00.819Z,10.50
2022-08-26T11:37:05.061Z,10.50
2022-08-26T11:39:54.077Z,13.43
2022-08-26T11:42:34.341Z,13.30
2022-08-26T11:45:20.815Z,12.70
2022-08-26T11:47:49.370Z,9.18
2022-08-26T11:50:21.486Z,9.68
2022-08-26T11:52:55.405Z,10.50
2022-08-26T11:55:25.278Z,13.98
2022-08-26T11:57:57.690Z,13.85
2022-08-26T12:00:31.446Z,11.93
2022-08-26T12:03:07.779Z,11.15
2022-08-26T12:05:44.307Z,11.70
2022-08-26T12:08:16.573Z,11.60
2022-08-26T12:10:46.553Z,10.30
2022-08-26T12:13:24.044Z,11.82
2022-08-26T12:15:57.062Z,12.52
2022-08-26T12:18:28.879Z,13.02
2022-08-26T12:21:00.980Z,9.50
2022-08-26T12:23:46.723Z,10.23
2022-08-26T12:26:24.588Z,11.90
2022-08-26T12:28:58.002Z,8.85
2022-08-26T12:31:35.454Z,11.65
2022-08-26T12:34:07.221Z,13.93
2022-08-26T12:36:50.904Z,12.57
2022-08-26T12:39:28.488Z,14.65
2022-08-26T12:42:00.084Z,12.88
2022-08-26T12:44:54.054Z,12.10
2022-08-26T12:47:42.052Z,12.30
2022-08-26T12:50:20.562Z,15.00
2022-08-26T12:53:01.089Z,14.32
2022-08-26T12:55:41.401Z,14.50
2022-08-26T12:58:24.504Z,12.05
2022-08-26T13:00:55.233Z,12.07
2022-08-26T13:03:44.509Z,11.05
2022-08-26T13:06:18.105Z,12.13
2022-08-26T13:08:48.430Z,12.15
2022-08-26T13:11:21.344Z,13.07
2022-08-26T13:13:53.415Z,12.35
2022-08-26T13:16:23.818Z,11.93
2022-08-26T13:18:55.669Z,12.20
2022-08-26T13:21:26.999Z,9.55
2022-08-26T13:23:55.961Z,17.17
2022-08-26T13:26:24.308Z,9.30
2022-08-26T13:29:01.640Z,13.95
2022-08-26T13:31:32.525Z,9.10
2022-08-26T13:34:02.552Z,12.27
2022-08-26T13:36:31.418Z,15.55
2022-08-26T13:39:00.482Z,16.10
2022-08-26T13:41:29.871Z,11.82
2022-08-26T13:44:00.094Z,21.38
2022-08-26T13:46:29.017Z,12.18
2022-08-26T13:48:58.563Z,9.95
2022-08-26T13:51:28.448Z,12.38
2022-08-26T13:53:57.385Z,8.10
2022-08-26T13:56:29.373Z,9.05
2022-08-26T13:59:01.179Z,8.35
2022-08-26T14:01:31.719Z,8.65
2022-08-26T14:04:00.075Z,6.55
2022-08-26T14:06:28.739Z,5.88
2022-08-26T14:08:57.062Z,8.18
2022-08-26T14:11:25.773Z,5.50
2022-08-26T14:13:54.222Z,7.65
2022-08-26T14:16:31.512Z,10.23
2022-08-26T14:19:01.321Z,8.18
2022-08-26T14:21:32.613Z,8.02
2022-08-26T14:24:01.188Z,7.22
2022-08-26T14:26:30.184Z,7.38
2022-08-26T14:28:59.735Z,11.10
2022-08-26T14:31:31.738Z,10.40
2022-08-26T14:34:04.794Z,6.70
2022-08-26T14:36:33.890Z,10.70
2022-08-26T14:39:06.421Z,7.60
2022-08-26T14:41:37.120Z,5.43
2022-08-26T14:44:09.968Z,11.98
2022-08-26T14:46:46.532Z,7.28
2022-08-26T14:49:16.055Z,8.07
2022-08-26T14:51:44.456Z,10.25
2022-08-26T14:54:13.295Z,8.32
2022-08-26T14:56:48.531Z,10.98
2022-08-26T14:59:20.748Z,12.52
2022-08-26T15:01:50.998Z,8.02
2022-08-26T15:04:19.918Z,12.48
2022-08-26T15:06:48.629Z,8.55
2022-08-26T15:09:17.252Z,9.13
2022-08-26T15:11:46.428Z,10.73
2022-08-26T15:14:19.830Z,9.50
2022-08-26T15:16:51.262Z,7.55
2022-08-26T15:19:20.357Z,12.20
2022-08-26T15:21:48.877Z,11.95
2022-08-26T15:24:21.554Z,10.07
2022-08-26T15:26:50.261Z,11.45
2022-08-26T15:29:18.813Z,12.05
2022-08-26T15:31:49.591Z,11.48
2022-08-26T15:34:18.811Z,9.25
2022-08-26T15:36:49.304Z,11.10
2022-08-26T15:39:18.837Z,10.25
2022-08-26T15:41:47.970Z,8.43
2022-08-26T15:44:18.419Z,10.98
2022-08-26T15:46:50.073Z,14.95
2022-08-26T15:49:19.019Z,10.88
2022-08-26T15:51:50.317Z,8.55
2022-08-26T15:54:21.770Z,10.98
2022-08-26T15:56:53.027Z,10.05
2022-08-26T15:59:23.662Z,9.23
2022-08-26T16:01:53.777Z,9.07
2022-08-26T16:04:22.428Z,7.43
2022-08-26T16:06:52.225Z,11.45
2022-08-26T16:09:24.256Z,10.57
2022-08-26T16:11:53.220Z,9.88
2022-08-26T16:14:21.886Z,10.75
2022-08-26T16:16:50.516Z,8.18
2022-08-26T16:19:21.044Z,9.85
2022-08-26T16:21:50.777Z,9.70
2022-08-26T16:24:24.845Z,7.97
2022-08-26T16:26:55.998Z,9.57
2022-08-26T16:29:24.588Z,6.82
2022-08-26T16:31:54.540Z,10.98
2022-08-26T16:34:24.559Z,7.75
2022-08-26T16:36:53.223Z,7.35
2022-08-26T16:39:21.614Z,7.43
2022-08-26T16:41:50.503Z,9.23
2022-08-26T16:44:19.398Z,8.70
2022-08-26T16:46:48.040Z,9.05
2022-08-26T16:49:16.520Z,6.95
2022-08-26T16:51:46.819Z,4.70
2022-08-26T16:54:15.243Z,7.00
2022-08-26T16:56:43.663Z,7.60
2022-08-26T16:59:12.747Z,8.37
2022-08-26T17:01:41.311Z,12.37
2022-08-26T17:04:09.749Z,5.77
2022-08-26T17:06:38.300Z,6.27
2022-08-26T17:09:08.212Z,7.33
2022-08-26T17:11:36.951Z,8.60
2022-08-26T17:14:05.803Z,6.63
2022-08-26T17:16:34.245Z,8.30
2022-08-26T17:19:04.533Z,5.77
2022-08-26T17:21:34.361Z,8.23
2022-08-26T17:24:03.216Z,6.30
2022-08-26T17:26:33.350Z,5.97
2022-08-26T17:29:01.828Z,8.43
2022-08-26T17:31:30.213Z,6.57
2022-08-26T17:33:58.886Z,8.57
2022-08-26T17:36:28.498Z,8.03
2022-08-26T17:38:58.589Z,10.37
2022-08-26T17:41:28.004Z,5.97
2022-08-26T17:43:57.820Z,5.87
2022-08-26T17:46:26.657Z,6.70
2022-08-26T17:48:55.411Z,5.87
2022-08-26T17:51:24.017Z,7.83
2022-08-26T17:53:53.118Z,6.07
2022-08-26T17:56:25.510Z,10.70
2022-08-26T17:58:56.477Z,5.47
2022-08-26T18:01:28.724Z,8.03
2022-08-26T18:04:00.474Z,7.83
2022-08-26T18:06:31.389Z,7.80
2022-08-26T18:09:00.703Z,11.13
2022-08-26T18:11:31.970Z,7.83
2022-08-26T18:14:00.726Z,8.67
2022-08-26T18:16:31.688Z,7.67
2022-08-26T18:19:00.938Z,7.10
2022-08-26T18:21:29.608Z,6.47
2022-08-26T18:23:58.510Z,6.67
2022-08-26T18:26:31.190Z,6.57
2022-08-26T18:28:59.911Z,8.77
2022-08-26T18:31:30.731Z,8.93
2022-08-26T18:34:01.325Z,6.93
2022-08-26T18:36:33.467Z,8.33
2022-08-26T18:39:03.899Z,7.43
2022-08-26T18:41:35.635Z,9.30
2022-08-26T18:44:04.704Z,8.60
2022-08-26T18:46:34.612Z,8.43
2022-08-26T18:49:03.036Z,8.37
2022-08-26T18:51:34.121Z,7.10
2022-08-26T18:54:06.338Z,7.30
2022-08-26T18:56:36.571Z,11.83
2022-08-26T18:59:07.252Z,8.57
2022-08-26T19:01:40.497Z,9.83
2022-08-26T19:04:14.774Z,8.27
2022-08-26T19:06:48.331Z,8.77
2022-08-26T19:09:17.929Z,10.00
2022-08-26T19:11:47.199Z,10.13
2022-08-26T19:14:18.387Z,8.97
2022-08-26T19:16:50.644Z,10.57
2022-08-26T19:19:19.924Z,8.90
2022-08-26T19:21:48.777Z,11.37
2022-08-26T19:24:19.131Z,8.87
2022-08-26T19:26:55.196Z,10.57
2022-08-26T19:29:30.264Z,9.60
2022-08-26T19:32:00.376Z,10.27
2022-08-26T19:34:29.569Z,9.83
2022-08-26T19:36:58.547Z,13.10
2022-08-26T19:39:27.780Z,10.30
2022-08-26T19:41:56.250Z,11.77
2022-08-26T19:44:42.244Z,12.03
2022-08-26T19:47:13.356Z,9.27
2022-08-26T19:49:41.739Z,11.13
2022-08-26T19:52:11.133Z,10.03
2022-08-26T19:54:40.431Z,9.33
2022-08-26T19:57:08.834Z,8.67
2022-08-26T19:59:37.410Z,9.97
2022-08-26T20:02:10.538Z,11.93
2022-08-26T20:04:41.829Z,11.37
2022-08-26T20:07:14.066Z,10.17
2022-08-26T20:09:45.018Z,10.27
2022-08-26T20:12:13.709Z,10.23
2022-08-26T20:14:42.866Z,10.30
2022-08-26T20:17:11.275Z,9.90
2022-08-26T20:19:58.511Z,12.67
2022-08-26T20:22:26.888Z,10.93
2022-08-26T20:24:55.421Z,8.90
2022-08-26T20:27:27.695Z,9.87
2022-08-26T20:30:09.620Z,9.10
2022-08-26T20:32:38.696Z,9.30
2022-08-26T20:35:14.328Z,10.20
2022-08-26T20:37:43.292Z,9.23
2022-08-26T20:40:14.022Z,10.40
2022-08-26T20:42:42.565Z,10.50
2022-08-26T20:45:11.887Z,9.63
2022-08-26T20:47:40.321Z,10.50
2022-08-26T20:50:10.929Z,12.03
2022-08-26T20:52:39.341Z,13.83
2022-08-26T20:55:08.809Z,9.80
2022-08-26T20:57:37.339Z,10.60
2022-08-26T21:00:07.546Z,11.10
2022-08-26T21:02:35.909Z,14.50
2022-08-26T21:05:04.602Z,12.17
2022-08-26T21:07:34.323Z,10.23
2022-08-26T21:10:03.876Z,11.20
2022-08-26T21:12:32.238Z,9.77
2022-08-26T21:15:00.661Z,10.37
2022-08-26T21:17:29.298Z,11.13
2022-08-26T21:19:57.585Z,9.43
2022-08-26T21:22:26.508Z,9.60
2022-08-26T21:24:56.239Z,12.10
2022-08-26T21:27:26.387Z,10.40
2022-08-26T21:29:55.383Z,11.93
2022-08-26T21:32:23.864Z,10.63
2022-08-26T21:34:55.981Z,10.97
2022-08-26T21:37:25.566Z,12.13
2022-08-26T21:39:57.115Z,12.93
2022-08-26T21:42:27.227Z,11.37
2022-08-26T21:44:55.740Z,13.67
2022-08-26T21:47:25.463Z,12.73
2022-08-26T21:49:54.310Z,12.70
2022-08-26T21:52:22.721Z,13.70
2022-08-26T21:54:51.143Z,13.00
2022-08-26T21:57:22.281Z,13.47
2022-08-26T21:59:50.567Z,12.63
2022-08-26T22:02:19.065Z,9.70
2022-08-26T22:04:49.016Z,10.27
2022-08-26T22:07:19.124Z,10.77
2022-08-26T22:09:47.931Z,10.10
2022-08-26T22:12:18.181Z,11.93
2022-08-26T22:14:48.114Z,12.80
2022-08-26T22:17:16.947Z,12.20
2022-08-26T22:19:46.432Z,13.10
2022-08-26T22:22:16.230Z,11.67
2022-08-26T22:24:44.668Z,9.43
2022-08-26T22:27:14.325Z,12.10
2022-08-26T22:29:42.675Z,10.97
2022-08-26T22:32:12.387Z,11.70
2022-08-26T22:34:41.915Z,11.00
2022-08-26T22:37:10.224Z,11.10
2022-08-26T22:39:38.855Z,11.20
2022-08-26T22:42:07.496Z,9.43
2022-08-26T22:44:37.484Z,13.23
2022-08-26T22:47:06.244Z,11.10
2022-08-26T22:49:35.979Z,11.20
2022-08-26T22:52:04.867Z,12.07
2022-08-26T22:54:33.602Z,10.50
2022-08-26T22:57:02.415Z,10.80
2022-08-26T22:59:30.728Z,11.33
2022-08-26T23:01:59.136Z,10.63
2022-08-26T23:04:27.512Z,10.63
2022-08-26T23:06:57.230Z,10.40
2022-08-26T23:09:25.632Z,9.80
2022-08-26T23:11:55.927Z,12.03
2022-08-26T23:14:25.826Z,13.37
2022-08-26T23:16:54.701Z,10.00
2022-08-26T23:19:24.373Z,9.00
2022-08-26T23:21:52.895Z,9.20
2022-08-26T23:24:22.593Z,9.77
2022-08-26T23:26:51.036Z,9.73
2022-08-26T23:29:19.412Z,10.30
2022-08-26T23:31:47.740Z,9.67
2022-08-26T23:34:33.452Z,9.93
2022-08-26T23:37:02.010Z,13.60
2022-08-26T23:39:34.967Z,9.50
2022-08-26T23:42:03.466Z,9.77
2022-08-26T23:44:32.214Z,10.37
2022-08-26T23:47:01.028Z,11.33
2022-08-26T23:49:30.390Z,12.63
2022-08-26T23:52:16.820Z,10.27
2022-08-26T23:54:48.564Z,11.27
2022-08-26T23:57:19.227Z,11.47
2022-08-26T23:59:49.040Z,12.97
